sensor_id;sensor_type;location;lat;lon;timestamp;temperature;humidity
17918;DHT22;9084;50.956;3.106;2023-06-22T00:01:18;19.20;99.90
17918;DHT22;9084;50.956;3.106;2023-06-22T00:03:44;19.20;99.90
17918;DHT22;9084;50.956;3.106;2023-06-22T00:06:10;19.20;99.90
17918;DHT22;9084;50.956;3.106;2023-06-22T00:08:37;19.10;99.90
17918;DHT22;9084;50.956;3.106;2023-06-22T00:11:05;19.10;99.90
17918;DHT22;9084;50.956;3.106;2023-06-22T00:13:31;19.00;99.90
17918;DHT22;9084;50.956;3.106;2023-06-22T00:15:59;19.00;99.90
17918;DHT22;9084;50.956;3.106;2023-06-22T00:18:25;19.00;99.90
17918;DHT22;9084;50.956;3.106;2023-06-22T00:20:54;18.90;99.90
17918;DHT22;9084;50.956;3.106;2023-06-22T00:23:23;19.00;99.90
17918;DHT22;9084;50.956;3.106;2023-06-22T00:25:49;18.90;99.90
17918;DHT22;9084;50.956;3.106;2023-06-22T00:28:15;18.90;99.90
17918;DHT22;9084;50.956;3.106;2023-06-22T00:30:43;18.80;99.90
17918;DHT22;9084;50.956;3.106;2023-06-22T00:33:09;18.80;99.90
17918;DHT22;9084;50.956;3.106;2023-06-22T00:35:34;18.80;99.90
17918;DHT22;9084;50.956;3.106;2023-06-22T00:38:02;18.80;99.90
17918;DHT22;9084;50.956;3.106;2023-06-22T00:40:31;18.80;99.90
17918;DHT22;9084;50.956;3.106;2023-06-22T00:42:59;18.80;99.90
17918;DHT22;9084;50.956;3.106;2023-06-22T00:45:26;18.80;99.90
17918;DHT22;9084;50.956;3.106;2023-06-22T00:47:56;18.80;99.90
17918;DHT22;9084;50.956;3.106;2023-06-22T00:50:24;18.70;99.90
17918;DHT22;9084;50.956;3.106;2023-06-22T00:52:57;18.70;99.90
17918;DHT22;9084;50.956;3.106;2023-06-22T00:55:24;18.70;99.90
17918;DHT22;9084;50.956;3.106;2023-06-22T00:57:53;18.70;99.90
17918;DHT22;9084;50.956;3.106;2023-06-22T01:00:25;18.70;99.90
17918;DHT22;9084;50.956;3.106;2023-06-22T01:02:52;18.70;99.90
17918;DHT22;9084;50.956;3.106;2023-06-22T01:05:24;18.70;99.90
17918;DHT22;9084;50.956;3.106;2023-06-22T01:11:23;18.70;99.90
17918;DHT22;9084;50.956;3.106;2023-06-22T01:14:06;18.70;99.90
17918;DHT22;9084;50.956;3.106;2023-06-22T01:16:40;18.70;99.90
17918;DHT22;9084;50.956;3.106;2023-06-22T01:22:03;18.70;99.90
17918;DHT22;9084;50.956;3.106;2023-06-22T01:27:19;18.80;99.90
17918;DHT22;9084;50.956;3.106;2023-06-22T01:29:51;18.80;99.90
17918;DHT22;9084;50.956;3.106;2023-06-22T01:32:18;18.80;99.90
17918;DHT22;9084;50.956;3.106;2023-06-22T01:34:46;18.80;99.90
17918;DHT22;9084;50.956;3.106;2023-06-22T01:37:12;18.70;99.90
17918;DHT22;9084;50.956;3.106;2023-06-22T01:39:41;18.70;99.90
17918;DHT22;9084;50.956;3.106;2023-06-22T01:42:07;18.70;99.90
17918;DHT22;9084;50.956;3.106;2023-06-22T01:44:34;18.70;99.90
17918;DHT22;9084;50.956;3.106;2023-06-22T01:47:00;18.60;99.90
17918;DHT22;9084;50.956;3.106;2023-06-22T01:49:25;18.60;99.90
17918;DHT22;9084;50.956;3.106;2023-06-22T01:51:51;18.60;99.90
17918;DHT22;9084;50.956;3.106;2023-06-22T01:54:17;18.60;99.90
17918;DHT22;9084;50.956;3.106;2023-06-22T01:56:45;18.60;99.90
17918;DHT22;9084;50.956;3.106;2023-06-22T01:59:36;18.60;99.90
17918;DHT22;9084;50.956;3.106;2023-06-22T02:02:10;18.50;99.90
17918;DHT22;9084;50.956;3.106;2023-06-22T02:04:46;18.50;99.90
17918;DHT22;9084;50.956;3.106;2023-06-22T02:07:14;18.50;99.90
17918;DHT22;9084;50.956;3.106;2023-06-22T02:09:44;18.50;99.90
17918;DHT22;9084;50.956;3.106;2023-06-22T02:12:13;18.50;99.90
17918;DHT22;9084;50.956;3.106;2023-06-22T02:14:41;18.40;99.90
17918;DHT22;9084;50.956;3.106;2023-06-22T02:17:09;18.40;99.90
17918;DHT22;9084;50.956;3.106;2023-06-22T02:19:38;18.30;99.90
17918;DHT22;9084;50.956;3.106;2023-06-22T02:22:08;18.30;99.90
17918;DHT22;9084;50.956;3.106;2023-06-22T02:24:34;18.30;99.90
17918;DHT22;9084;50.956;3.106;2023-06-22T02:27:00;18.20;99.90
17918;DHT22;9084;50.956;3.106;2023-06-22T02:29:26;18.20;99.90
17918;DHT22;9084;50.956;3.106;2023-06-22T02:31:55;18.20;99.90
17918;DHT22;9084;50.956;3.106;2023-06-22T02:34:21;18.10;99.90
17918;DHT22;9084;50.956;3.106;2023-06-22T02:36:48;18.10;99.90
17918;DHT22;9084;50.956;3.106;2023-06-22T02:39:23;18.00;99.90
17918;DHT22;9084;50.956;3.106;2023-06-22T02:41:50;18.10;99.90
17918;DHT22;9084;50.956;3.106;2023-06-22T02:44:16;18.00;99.90
17918;DHT22;9084;50.956;3.106;2023-06-22T02:46:47;17.90;99.90
17918;DHT22;9084;50.956;3.106;2023-06-22T02:49:18;17.90;99.90
17918;DHT22;9084;50.956;3.106;2023-06-22T02:51:47;17.90;99.90
17918;DHT22;9084;50.956;3.106;2023-06-22T02:54:13;17.90;99.90
17918;DHT22;9084;50.956;3.106;2023-06-22T02:56:43;17.90;99.90
17918;DHT22;9084;50.956;3.106;2023-06-22T02:59:10;17.90;99.90
17918;DHT22;9084;50.956;3.106;2023-06-22T03:01:36;17.90;99.90
17918;DHT22;9084;50.956;3.106;2023-06-22T03:04:08;17.80;99.90
17918;DHT22;9084;50.956;3.106;2023-06-22T03:06:35;17.80;99.90
17918;DHT22;9084;50.956;3.106;2023-06-22T03:09:07;17.70;99.90
17918;DHT22;9084;50.956;3.106;2023-06-22T03:11:33;17.80;99.90
17918;DHT22;9084;50.956;3.106;2023-06-22T03:14:00;17.80;99.90
17918;DHT22;9084;50.956;3.106;2023-06-22T03:16:26;17.80;99.90
17918;DHT22;9084;50.956;3.106;2023-06-22T03:18:55;17.70;99.90
17918;DHT22;9084;50.956;3.106;2023-06-22T03:21:22;17.70;99.90
17918;DHT22;9084;50.956;3.106;2023-06-22T03:23:50;17.70;99.90
17918;DHT22;9084;50.956;3.106;2023-06-22T03:26:18;17.70;99.90
17918;DHT22;9084;50.956;3.106;2023-06-22T03:28:43;17.70;99.90
17918;DHT22;9084;50.956;3.106;2023-06-22T03:31:12;17.70;99.90
17918;DHT22;9084;50.956;3.106;2023-06-22T03:33:37;17.80;99.90
17918;DHT22;9084;50.956;3.106;2023-06-22T03:36:07;17.70;99.90
17918;DHT22;9084;50.956;3.106;2023-06-22T03:38:34;17.80;99.90
17918;DHT22;9084;50.956;3.106;2023-06-22T03:41:01;17.70;99.90
17918;DHT22;9084;50.956;3.106;2023-06-22T03:43:27;17.70;99.90
17918;DHT22;9084;50.956;3.106;2023-06-22T03:45:53;17.80;99.90
17918;DHT22;9084;50.956;3.106;2023-06-22T03:48:18;17.80;99.90
17918;DHT22;9084;50.956;3.106;2023-06-22T03:50:44;17.80;99.90
17918;DHT22;9084;50.956;3.106;2023-06-22T03:53:12;17.90;99.90
17918;DHT22;9084;50.956;3.106;2023-06-22T03:55:47;17.90;99.90
17918;DHT22;9084;50.956;3.106;2023-06-22T03:58:13;17.90;99.90
17918;DHT22;9084;50.956;3.106;2023-06-22T04:00:39;17.90;99.90
17918;DHT22;9084;50.956;3.106;2023-06-22T04:03:04;18.00;99.90
17918;DHT22;9084;50.956;3.106;2023-06-22T04:05:33;18.00;99.90
17918;DHT22;9084;50.956;3.106;2023-06-22T04:08:00;18.10;99.90
17918;DHT22;9084;50.956;3.106;2023-06-22T04:10:31;18.10;99.90
17918;DHT22;9084;50.956;3.106;2023-06-22T04:12:57;18.10;99.90
17918;DHT22;9084;50.956;3.106;2023-06-22T04:15:25;18.20;99.90
17918;DHT22;9084;50.956;3.106;2023-06-22T04:17:51;18.10;99.90
17918;DHT22;9084;50.956;3.106;2023-06-22T04:20:16;18.20;99.90
17918;DHT22;9084;50.956;3.106;2023-06-22T04:22:46;18.20;99.90
17918;DHT22;9084;50.956;3.106;2023-06-22T04:25:13;18.20;99.90
17918;DHT22;9084;50.956;3.106;2023-06-22T04:27:39;18.30;99.90
17918;DHT22;9084;50.956;3.106;2023-06-22T04:30:10;18.30;99.90
17918;DHT22;9084;50.956;3.106;2023-06-22T04:32:36;18.40;99.90
17918;DHT22;9084;50.956;3.106;2023-06-22T04:35:03;18.40;99.90
17918;DHT22;9084;50.956;3.106;2023-06-22T04:37:30;18.40;99.90
17918;DHT22;9084;50.956;3.106;2023-06-22T04:39:56;18.50;99.90
17918;DHT22;9084;50.956;3.106;2023-06-22T04:42:21;18.50;99.90
17918;DHT22;9084;50.956;3.106;2023-06-22T04:44:49;18.50;99.90
17918;DHT22;9084;50.956;3.106;2023-06-22T04:47:15;18.50;99.90
17918;DHT22;9084;50.956;3.106;2023-06-22T04:49:40;18.50;99.90
17918;DHT22;9084;50.956;3.106;2023-06-22T04:52:09;18.60;99.90
17918;DHT22;9084;50.956;3.106;2023-06-22T04:54:37;18.60;99.90
17918;DHT22;9084;50.956;3.106;2023-06-22T04:57:07;18.60;99.90
17918;DHT22;9084;50.956;3.106;2023-06-22T04:59:37;18.60;99.90
17918;DHT22;9084;50.956;3.106;2023-06-22T05:02:05;18.60;99.90
17918;DHT22;9084;50.956;3.106;2023-06-22T05:04:31;18.70;99.90
17918;DHT22;9084;50.956;3.106;2023-06-22T05:06:57;18.70;99.90
17918;DHT22;9084;50.956;3.106;2023-06-22T05:09:26;18.70;99.90
17918;DHT22;9084;50.956;3.106;2023-06-22T05:11:52;18.70;99.90
17918;DHT22;9084;50.956;3.106;2023-06-22T05:14:20;18.70;99.90
17918;DHT22;9084;50.956;3.106;2023-06-22T05:16:51;18.70;99.90
17918;DHT22;9084;50.956;3.106;2023-06-22T05:19:17;18.80;99.90
17918;DHT22;9084;50.956;3.106;2023-06-22T05:21:43;18.80;99.90
17918;DHT22;9084;50.956;3.106;2023-06-22T05:24:08;18.90;99.90
17918;DHT22;9084;50.956;3.106;2023-06-22T05:26:35;18.90;99.90
17918;DHT22;9084;50.956;3.106;2023-06-22T05:29:02;19.00;99.90
17918;DHT22;9084;50.956;3.106;2023-06-22T05:31:29;19.10;99.90
17918;DHT22;9084;50.956;3.106;2023-06-22T05:33:55;19.20;99.90
17918;DHT22;9084;50.956;3.106;2023-06-22T05:36:21;19.20;99.90
17918;DHT22;9084;50.956;3.106;2023-06-22T05:38:51;19.30;99.90
17918;DHT22;9084;50.956;3.106;2023-06-22T05:41:17;19.30;99.90
17918;DHT22;9084;50.956;3.106;2023-06-22T05:43:43;19.40;99.90
17918;DHT22;9084;50.956;3.106;2023-06-22T05:46:11;19.50;99.90
17918;DHT22;9084;50.956;3.106;2023-06-22T05:48:39;19.50;99.90
17918;DHT22;9084;50.956;3.106;2023-06-22T05:51:04;19.50;99.90
17918;DHT22;9084;50.956;3.106;2023-06-22T05:53:30;19.50;99.90
17918;DHT22;9084;50.956;3.106;2023-06-22T05:55:58;19.60;99.90
17918;DHT22;9084;50.956;3.106;2023-06-22T05:58:25;19.60;99.90
17918;DHT22;9084;50.956;3.106;2023-06-22T06:00:51;19.60;99.90
17918;DHT22;9084;50.956;3.106;2023-06-22T06:03:17;19.70;99.90
17918;DHT22;9084;50.956;3.106;2023-06-22T06:05:43;19.70;99.90
17918;DHT22;9084;50.956;3.106;2023-06-22T06:08:09;19.80;99.90
17918;DHT22;9084;50.956;3.106;2023-06-22T06:10:36;19.80;99.90
17918;DHT22;9084;50.956;3.106;2023-06-22T06:13:04;19.90;99.90
17918;DHT22;9084;50.956;3.106;2023-06-22T06:15:31;20.00;99.90
17918;DHT22;9084;50.956;3.106;2023-06-22T06:17:59;20.10;99.90
17918;DHT22;9084;50.956;3.106;2023-06-22T06:20:27;20.20;99.90
17918;DHT22;9084;50.956;3.106;2023-06-22T06:22:53;20.30;99.90
17918;DHT22;9084;50.956;3.106;2023-06-22T06:25:19;20.30;99.90
17918;DHT22;9084;50.956;3.106;2023-06-22T06:27:50;20.40;99.90
17918;DHT22;9084;50.956;3.106;2023-06-22T06:30:18;20.50;99.90
17918;DHT22;9084;50.956;3.106;2023-06-22T06:32:44;20.60;99.90
17918;DHT22;9084;50.956;3.106;2023-06-22T06:35:14;20.70;99.90
17918;DHT22;9084;50.956;3.106;2023-06-22T06:37:43;20.80;99.90
17918;DHT22;9084;50.956;3.106;2023-06-22T06:40:10;20.90;99.90
17918;DHT22;9084;50.956;3.106;2023-06-22T06:42:37;20.90;99.90
17918;DHT22;9084;50.956;3.106;2023-06-22T06:45:06;21.00;99.90
17918;DHT22;9084;50.956;3.106;2023-06-22T06:47:35;21.20;99.90
17918;DHT22;9084;50.956;3.106;2023-06-22T06:50:04;21.30;99.90
17918;DHT22;9084;50.956;3.106;2023-06-22T06:52:30;21.50;99.90
17918;DHT22;9084;50.956;3.106;2023-06-22T06:54:58;21.50;99.90
17918;DHT22;9084;50.956;3.106;2023-06-22T06:57:26;21.60;99.90
17918;DHT22;9084;50.956;3.106;2023-06-22T06:59:57;21.70;99.90
17918;DHT22;9084;50.956;3.106;2023-06-22T07:02:26;21.80;99.90
17918;DHT22;9084;50.956;3.106;2023-06-22T07:04:54;21.90;99.90
17918;DHT22;9084;50.956;3.106;2023-06-22T07:07:25;22.00;99.90
17918;DHT22;9084;50.956;3.106;2023-06-22T07:09:51;22.20;99.90
17918;DHT22;9084;50.956;3.106;2023-06-22T07:12:16;22.30;99.90
17918;DHT22;9084;50.956;3.106;2023-06-22T07:14:42;22.30;99.90
17918;DHT22;9084;50.956;3.106;2023-06-22T07:17:08;22.40;99.90
17918;DHT22;9084;50.956;3.106;2023-06-22T07:19:35;22.40;99.90
17918;DHT22;9084;50.956;3.106;2023-06-22T07:22:01;22.50;99.90
17918;DHT22;9084;50.956;3.106;2023-06-22T07:24:27;22.50;99.90
17918;DHT22;9084;50.956;3.106;2023-06-22T07:26:54;22.50;99.90
17918;DHT22;9084;50.956;3.106;2023-06-22T07:29:23;22.50;99.90
17918;DHT22;9084;50.956;3.106;2023-06-22T07:31:50;22.60;99.90
17918;DHT22;9084;50.956;3.106;2023-06-22T07:34:19;22.70;99.90
17918;DHT22;9084;50.956;3.106;2023-06-22T07:36:45;22.60;99.90
17918;DHT22;9084;50.956;3.106;2023-06-22T07:39:11;22.70;99.90
17918;DHT22;9084;50.956;3.106;2023-06-22T07:41:39;22.80;99.90
17918;DHT22;9084;50.956;3.106;2023-06-22T07:44:04;22.80;99.90
17918;DHT22;9084;50.956;3.106;2023-06-22T07:46:31;22.90;99.90
17918;DHT22;9084;50.956;3.106;2023-06-22T07:48:59;22.90;99.90
17918;DHT22;9084;50.956;3.106;2023-06-22T07:51:27;23.00;99.90
17918;DHT22;9084;50.956;3.106;2023-06-22T07:53:53;23.20;99.90
17918;DHT22;9084;50.956;3.106;2023-06-22T07:56:21;23.20;99.90
17918;DHT22;9084;50.956;3.106;2023-06-22T07:58:47;23.30;99.90
17918;DHT22;9084;50.956;3.106;2023-06-22T08:01:16;23.40;99.90
17918;DHT22;9084;50.956;3.106;2023-06-22T08:03:42;23.60;99.90
17918;DHT22;9084;50.956;3.106;2023-06-22T08:06:10;23.30;99.90
17918;DHT22;9084;50.956;3.106;2023-06-22T08:08:36;23.30;99.90
17918;DHT22;9084;50.956;3.106;2023-06-22T08:11:02;23.30;99.90
17918;DHT22;9084;50.956;3.106;2023-06-22T08:13:30;23.30;99.90
17918;DHT22;9084;50.956;3.106;2023-06-22T08:15:56;23.20;99.90
17918;DHT22;9084;50.956;3.106;2023-06-22T08:18:21;23.20;99.90
17918;DHT22;9084;50.956;3.106;2023-06-22T08:20:52;23.20;99.90
17918;DHT22;9084;50.956;3.106;2023-06-22T08:23:19;23.10;99.90
17918;DHT22;9084;50.956;3.106;2023-06-22T08:25:45;23.20;99.90
17918;DHT22;9084;50.956;3.106;2023-06-22T08:28:13;23.10;99.90
17918;DHT22;9084;50.956;3.106;2023-06-22T08:30:39;23.10;99.90
17918;DHT22;9084;50.956;3.106;2023-06-22T08:33:09;23.20;99.90
17918;DHT22;9084;50.956;3.106;2023-06-22T08:35:35;23.20;99.90
17918;DHT22;9084;50.956;3.106;2023-06-22T08:38:00;23.20;99.90
17918;DHT22;9084;50.956;3.106;2023-06-22T08:40:27;23.30;99.90
17918;DHT22;9084;50.956;3.106;2023-06-22T08:42:54;23.30;99.90
17918;DHT22;9084;50.956;3.106;2023-06-22T08:45:22;23.30;99.90
17918;DHT22;9084;50.956;3.106;2023-06-22T08:47:50;23.30;99.90
17918;DHT22;9084;50.956;3.106;2023-06-22T08:50:18;23.30;99.90
17918;DHT22;9084;50.956;3.106;2023-06-22T08:52:46;23.40;99.90
17918;DHT22;9084;50.956;3.106;2023-06-22T08:55:12;23.50;99.90
17918;DHT22;9084;50.956;3.106;2023-06-22T08:57:38;23.50;99.90
17918;DHT22;9084;50.956;3.106;2023-06-22T09:00:09;23.50;99.90
17918;DHT22;9084;50.956;3.106;2023-06-22T09:02:41;23.50;99.90
17918;DHT22;9084;50.956;3.106;2023-06-22T09:05:07;23.50;99.90
17918;DHT22;9084;50.956;3.106;2023-06-22T09:07:33;23.50;99.90
17918;DHT22;9084;50.956;3.106;2023-06-22T09:09:59;23.50;99.90
17918;DHT22;9084;50.956;3.106;2023-06-22T09:12:25;23.60;99.90
17918;DHT22;9084;50.956;3.106;2023-06-22T09:14:53;23.60;99.90
17918;DHT22;9084;50.956;3.106;2023-06-22T09:17:18;23.50;99.90
17918;DHT22;9084;50.956;3.106;2023-06-22T09:19:44;23.40;99.90
17918;DHT22;9084;50.956;3.106;2023-06-22T09:22:10;23.40;99.90
17918;DHT22;9084;50.956;3.106;2023-06-22T09:24:35;23.50;99.90
17918;DHT22;9084;50.956;3.106;2023-06-22T09:27:01;23.50;99.90
17918;DHT22;9084;50.956;3.106;2023-06-22T09:29:29;23.50;99.90
17918;DHT22;9084;50.956;3.106;2023-06-22T09:31:59;23.50;99.90
17918;DHT22;9084;50.956;3.106;2023-06-22T09:34:24;23.50;99.90
17918;DHT22;9084;50.956;3.106;2023-06-22T09:36:52;23.50;99.90
17918;DHT22;9084;50.956;3.106;2023-06-22T09:39:20;23.50;99.90
17918;DHT22;9084;50.956;3.106;2023-06-22T09:41:46;23.60;99.90
17918;DHT22;9084;50.956;3.106;2023-06-22T09:44:11;23.70;99.90
17918;DHT22;9084;50.956;3.106;2023-06-22T09:46:37;23.70;99.90
17918;DHT22;9084;50.956;3.106;2023-06-22T09:49:03;23.80;99.90
17918;DHT22;9084;50.956;3.106;2023-06-22T09:51:28;23.90;99.90
17918;DHT22;9084;50.956;3.106;2023-06-22T09:53:54;23.90;99.90
17918;DHT22;9084;50.956;3.106;2023-06-22T09:56:20;24.00;99.90
17918;DHT22;9084;50.956;3.106;2023-06-22T09:58:47;23.90;99.90
17918;DHT22;9084;50.956;3.106;2023-06-22T10:01:18;23.90;99.90
17918;DHT22;9084;50.956;3.106;2023-06-22T10:03:46;23.90;99.90
17918;DHT22;9084;50.956;3.106;2023-06-22T10:06:12;23.90;99.90
17918;DHT22;9084;50.956;3.106;2023-06-22T10:08:37;23.90;99.90
17918;DHT22;9084;50.956;3.106;2023-06-22T10:11:04;24.00;99.90
17918;DHT22;9084;50.956;3.106;2023-06-22T10:13:30;24.00;99.90
17918;DHT22;9084;50.956;3.106;2023-06-22T10:15:55;24.00;99.90
17918;DHT22;9084;50.956;3.106;2023-06-22T10:18:21;24.10;99.90
17918;DHT22;9084;50.956;3.106;2023-06-22T10:20:49;24.00;99.90
17918;DHT22;9084;50.956;3.106;2023-06-22T10:23:19;24.00;99.90
17918;DHT22;9084;50.956;3.106;2023-06-22T10:25:44;23.90;99.90
17918;DHT22;9084;50.956;3.106;2023-06-22T10:28:10;23.90;99.90
17918;DHT22;9084;50.956;3.106;2023-06-22T10:30:36;23.90;99.90
17918;DHT22;9084;50.956;3.106;2023-06-22T10:33:01;23.80;98.80
17918;DHT22;9084;50.956;3.106;2023-06-22T10:35:27;23.70;99.50
17918;DHT22;9084;50.956;3.106;2023-06-22T10:37:57;23.70;99.10
17918;DHT22;9084;50.956;3.106;2023-06-22T10:40:25;23.70;99.20
17918;DHT22;9084;50.956;3.106;2023-06-22T10:42:58;23.60;99.40
17918;DHT22;9084;50.956;3.106;2023-06-22T10:45:26;23.50;99.90
17918;DHT22;9084;50.956;3.106;2023-06-22T10:47:55;23.50;99.60
17918;DHT22;9084;50.956;3.106;2023-06-22T10:50:24;23.40;99.90
17918;DHT22;9084;50.956;3.106;2023-06-22T10:52:52;23.30;99.90
17918;DHT22;9084;50.956;3.106;2023-06-22T10:55:18;23.30;99.90
17918;DHT22;9084;50.956;3.106;2023-06-22T10:57:46;23.20;99.90
17918;DHT22;9084;50.956;3.106;2023-06-22T11:00:14;23.10;99.90
17918;DHT22;9084;50.956;3.106;2023-06-22T11:02:40;23.10;99.90
17918;DHT22;9084;50.956;3.106;2023-06-22T11:05:06;23.10;99.90
17918;DHT22;9084;50.956;3.106;2023-06-22T11:07:32;23.10;99.90
17918;DHT22;9084;50.956;3.106;2023-06-22T11:09:58;23.10;99.90
17918;DHT22;9084;50.956;3.106;2023-06-22T11:12:28;23.10;99.90
17918;DHT22;9084;50.956;3.106;2023-06-22T11:14:54;23.10;99.90
17918;DHT22;9084;50.956;3.106;2023-06-22T11:17:22;23.20;99.90
17918;DHT22;9084;50.956;3.106;2023-06-22T11:19:48;23.20;99.90
17918;DHT22;9084;50.956;3.106;2023-06-22T11:22:13;23.30;99.90
17918;DHT22;9084;50.956;3.106;2023-06-22T11:24:41;23.30;99.90
17918;DHT22;9084;50.956;3.106;2023-06-22T11:27:09;23.30;99.90
17918;DHT22;9084;50.956;3.106;2023-06-22T11:29:37;23.30;99.90
17918;DHT22;9084;50.956;3.106;2023-06-22T11:32:07;23.30;99.90
17918;DHT22;9084;50.956;3.106;2023-06-22T11:34:33;23.30;99.90
17918;DHT22;9084;50.956;3.106;2023-06-22T11:37:01;23.20;99.90
17918;DHT22;9084;50.956;3.106;2023-06-22T11:39:29;23.20;99.90
17918;DHT22;9084;50.956;3.106;2023-06-22T11:41:54;23.20;99.90
17918;DHT22;9084;50.956;3.106;2023-06-22T11:44:22;23.10;99.90
17918;DHT22;9084;50.956;3.106;2023-06-22T11:46:50;23.10;99.90
17918;DHT22;9084;50.956;3.106;2023-06-22T11:49:16;23.00;99.90
17918;DHT22;9084;50.956;3.106;2023-06-22T11:51:44;23.00;99.90
17918;DHT22;9084;50.956;3.106;2023-06-22T11:54:09;23.00;99.90
17918;DHT22;9084;50.956;3.106;2023-06-22T11:56:35;22.90;99.90
17918;DHT22;9084;50.956;3.106;2023-06-22T11:59:01;22.90;99.90
17918;DHT22;9084;50.956;3.106;2023-06-22T12:01:27;22.90;99.90
17918;DHT22;9084;50.956;3.106;2023-06-22T12:03:52;23.00;99.90
17918;DHT22;9084;50.956;3.106;2023-06-22T12:06:18;23.00;99.90
17918;DHT22;9084;50.956;3.106;2023-06-22T12:08:43;23.00;99.90
17918;DHT22;9084;50.956;3.106;2023-06-22T12:11:09;23.10;99.90
17918;DHT22;9084;50.956;3.106;2023-06-22T12:13:35;23.10;99.90
17918;DHT22;9084;50.956;3.106;2023-06-22T12:16:00;23.20;99.90
17918;DHT22;9084;50.956;3.106;2023-06-22T12:18:28;23.30;99.90
17918;DHT22;9084;50.956;3.106;2023-06-22T12:20:58;23.40;99.90
17918;DHT22;9084;50.956;3.106;2023-06-22T12:23:24;23.40;99.90
17918;DHT22;9084;50.956;3.106;2023-06-22T12:25:53;23.40;99.90
17918;DHT22;9084;50.956;3.106;2023-06-22T12:28:23;23.40;99.90
17918;DHT22;9084;50.956;3.106;2023-06-22T12:30:54;23.40;99.90
17918;DHT22;9084;50.956;3.106;2023-06-22T12:33:19;23.40;99.90
17918;DHT22;9084;50.956;3.106;2023-06-22T12:35:47;23.40;99.90
17918;DHT22;9084;50.956;3.106;2023-06-22T12:38:14;23.40;99.90
17918;DHT22;9084;50.956;3.106;2023-06-22T12:40:40;23.30;99.90
17918;DHT22;9084;50.956;3.106;2023-06-22T12:43:08;23.30;99.90
17918;DHT22;9084;50.956;3.106;2023-06-22T12:45:33;23.40;99.90
17918;DHT22;9084;50.956;3.106;2023-06-22T12:48:02;23.40;99.90
17918;DHT22;9084;50.956;3.106;2023-06-22T12:50:28;23.40;99.90
17918;DHT22;9084;50.956;3.106;2023-06-22T12:52:53;23.40;99.90
17918;DHT22;9084;50.956;3.106;2023-06-22T12:55:21;23.30;99.90
17918;DHT22;9084;50.956;3.106;2023-06-22T12:57:47;23.30;99.90
17918;DHT22;9084;50.956;3.106;2023-06-22T13:00:13;23.30;99.90
17918;DHT22;9084;50.956;3.106;2023-06-22T13:02:41;23.30;99.90
17918;DHT22;9084;50.956;3.106;2023-06-22T13:05:08;23.30;99.90
17918;DHT22;9084;50.956;3.106;2023-06-22T13:07:34;23.40;99.90
17918;DHT22;9084;50.956;3.106;2023-06-22T13:09:59;23.40;99.90
17918;DHT22;9084;50.956;3.106;2023-06-22T13:12:25;23.40;99.90
17918;DHT22;9084;50.956;3.106;2023-06-22T13:14:53;23.50;99.90
17918;DHT22;9084;50.956;3.106;2023-06-22T13:17:18;23.60;99.90
17918;DHT22;9084;50.956;3.106;2023-06-22T13:19:44;23.60;99.90
17918;DHT22;9084;50.956;3.106;2023-06-22T13:24:55;23.50;99.90
17918;DHT22;9084;50.956;3.106;2023-06-22T13:27:23;23.50;99.90
17918;DHT22;9084;50.956;3.106;2023-06-22T13:29:51;23.50;99.90
17918;DHT22;9084;50.956;3.106;2023-06-22T13:32:17;23.50;99.90
17918;DHT22;9084;50.956;3.106;2023-06-22T13:34:45;23.50;99.90
17918;DHT22;9084;50.956;3.106;2023-06-22T13:37:11;23.60;99.90
17918;DHT22;9084;50.956;3.106;2023-06-22T13:39:39;23.80;99.90
17918;DHT22;9084;50.956;3.106;2023-06-22T13:42:07;24.00;99.90
17918;DHT22;9084;50.956;3.106;2023-06-22T13:44:37;24.20;99.90
17918;DHT22;9084;50.956;3.106;2023-06-22T13:47:03;24.30;99.90
17918;DHT22;9084;50.956;3.106;2023-06-22T13:49:32;24.50;98.80
17918;DHT22;9084;50.956;3.106;2023-06-22T13:51:59;24.50;99.10
17918;DHT22;9084;50.956;3.106;2023-06-22T13:54:25;24.60;99.80
17918;DHT22;9084;50.956;3.106;2023-06-22T13:56:53;24.70;98.10
17918;DHT22;9084;50.956;3.106;2023-06-22T13:59:18;24.80;97.20
17918;DHT22;9084;50.956;3.106;2023-06-22T14:01:45;24.80;97.20
17918;DHT22;9084;50.956;3.106;2023-06-22T14:04:10;24.90;97.20
17918;DHT22;9084;50.956;3.106;2023-06-22T14:06:37;25.00;95.30
17918;DHT22;9084;50.956;3.106;2023-06-22T14:09:03;25.00;95.80
17918;DHT22;9084;50.956;3.106;2023-06-22T14:11:28;24.90;92.90
17918;DHT22;9084;50.956;3.106;2023-06-22T14:13:56;24.70;94.90
17918;DHT22;9084;50.956;3.106;2023-06-22T14:16:22;24.60;95.40
17918;DHT22;9084;50.956;3.106;2023-06-22T14:18:50;24.50;92.40
17918;DHT22;9084;50.956;3.106;2023-06-22T14:21:15;24.60;93.60
17918;DHT22;9084;50.956;3.106;2023-06-22T14:23:41;24.70;93.40
17918;DHT22;9084;50.956;3.106;2023-06-22T14:26:07;24.80;93.50
17918;DHT22;9084;50.956;3.106;2023-06-22T14:28:32;24.80;93.80
17918;DHT22;9084;50.956;3.106;2023-06-22T14:31:00;24.80;92.50
17918;DHT22;9084;50.956;3.106;2023-06-22T14:33:28;24.80;91.00
17918;DHT22;9084;50.956;3.106;2023-06-22T14:35:54;24.70;91.90
17918;DHT22;9084;50.956;3.106;2023-06-22T14:38:19;24.80;92.50
17918;DHT22;9084;50.956;3.106;2023-06-22T14:40:46;24.80;92.30
17918;DHT22;9084;50.956;3.106;2023-06-22T14:43:14;24.60;93.10
17918;DHT22;9084;50.956;3.106;2023-06-22T14:45:45;24.50;93.40
17918;DHT22;9084;50.956;3.106;2023-06-22T14:48:10;24.60;93.70
17918;DHT22;9084;50.956;3.106;2023-06-22T14:50:36;24.70;94.20
17918;DHT22;9084;50.956;3.106;2023-06-22T14:53:02;24.60;93.10
17918;DHT22;9084;50.956;3.106;2023-06-22T14:55:27;24.60;92.90
17918;DHT22;9084;50.956;3.106;2023-06-22T14:57:53;24.70;93.70
17918;DHT22;9084;50.956;3.106;2023-06-22T15:00:21;24.70;92.20
17918;DHT22;9084;50.956;3.106;2023-06-22T15:02:49;24.70;92.60
17918;DHT22;9084;50.956;3.106;2023-06-22T15:05:17;24.70;92.20
17918;DHT22;9084;50.956;3.106;2023-06-22T15:07:43;24.50;92.20
17918;DHT22;9084;50.956;3.106;2023-06-22T15:10:09;24.50;92.30
17918;DHT22;9084;50.956;3.106;2023-06-22T15:12:35;24.40;92.60
17918;DHT22;9084;50.956;3.106;2023-06-22T15:15:04;24.40;93.10
17918;DHT22;9084;50.956;3.106;2023-06-22T15:17:29;24.40;93.30
17918;DHT22;9084;50.956;3.106;2023-06-22T15:19:59;24.40;91.90
17918;DHT22;9084;50.956;3.106;2023-06-22T15:22:25;24.30;91.90
17918;DHT22;9084;50.956;3.106;2023-06-22T15:24:53;24.50;91.70
17918;DHT22;9084;50.956;3.106;2023-06-22T15:27:19;24.60;91.40
17918;DHT22;9084;50.956;3.106;2023-06-22T15:29:48;24.60;91.60
17918;DHT22;9084;50.956;3.106;2023-06-22T15:32:13;24.70;90.30
17918;DHT22;9084;50.956;3.106;2023-06-22T15:34:39;24.60;89.70
17918;DHT22;9084;50.956;3.106;2023-06-22T15:37:05;24.60;90.40
17918;DHT22;9084;50.956;3.106;2023-06-22T15:39:30;24.60;91.20
17918;DHT22;9084;50.956;3.106;2023-06-22T15:41:58;24.80;89.80
17918;DHT22;9084;50.956;3.106;2023-06-22T15:44:24;24.70;89.50
17918;DHT22;9084;50.956;3.106;2023-06-22T15:46:52;24.70;90.20
17918;DHT22;9084;50.956;3.106;2023-06-22T15:49:20;24.70;89.70
17918;DHT22;9084;50.956;3.106;2023-06-22T15:51:46;24.60;89.20
17918;DHT22;9084;50.956;3.106;2023-06-22T15:54:16;24.50;89.10
17918;DHT22;9084;50.956;3.106;2023-06-22T15:56:44;24.30;90.00